メインページ
METAR-TAF:

METAR-TAF

空港 :

サギノー, ミシガン州, アメリカ合衆国

緯度: 43-31-58N, 経度: 084-04-46W, 海抜: 204m

現時点の気象観測

当レポートは22分前の05:53(UTC)に作成
東/北東の風 5kt
気温 3°C
湿度 100%
気圧 1018 hPa
視程: 16.1km
晴天

METAR: KMBS 040553Z AUTO 06005KT 10SM CLR 03/03 A3005 RMK AO2 SLP179 T00330028 10083 20033 58006

時間: 02:15 (06:15 UTC)

予報

当レポートは55分前の05:20(UTC)に作成
予報は04日の 06時(UTC)から 05日の 06時(UTC)まで有効
北/北東の風 5kt
視程: 10km
晴天
04日の 1600時(UTC)から
南/南東の風 5kt
視程: 10km
高度7000ftの千切れ雲あり
04日の 2000時(UTC)から
南西の風 6kt
視程: 4.8km
高度1200ftの曇り
弱いにわか雨
04日の 2300時(UTC)から
西/南西の風 6kt
視程: 10km
高度2000ftの曇り

TAF: KMBS 040520Z 0406/0506 02005KT P6SM SKC FM041600 16005KT P6SM BKN070 FM042000 23006KT 3SM -SHRA OVC012 FM042300 24006KT P6SM OVC020

4,000以上の空港の気象観測と天気予報(METAR報とTAF報)

利用可能な観測所は地図上に黄色い丸と赤い丸で示す。

丸の上にカーソルを重ねると観測所名を参照できる。

次にクリックすると気象観測と天気予報を参照できる。

マップの切り替え:黒色「×」印の緑ボタンをクリックして拡大、「-」印の緑ボタンをクリックして縮小、緑色の三角印をクリックして隣りの地図に切り替え


METAR-TAF: